sensor_id;sensor_type;location;lat;lon;timestamp;P1;durP1;ratioP1;P2;durP2;ratioP2
76939;SDS011;65885;55.848;35.916;2023-07-29T00:00:11;4.05;;;2.17;;
76939;SDS011;65885;55.848;35.916;2023-07-29T00:02:39;4.15;;;2.05;;
76939;SDS011;65885;55.848;35.916;2023-07-29T00:05:06;3.78;;;1.80;;
76939;SDS011;65885;55.848;35.916;2023-07-29T00:07:34;3.13;;;1.95;;
76939;SDS011;65885;55.848;35.916;2023-07-29T00:10:01;3.65;;;2.25;;
76939;SDS011;65885;55.848;35.916;2023-07-29T00:12:29;2.53;;;1.70;;
76939;SDS011;65885;55.848;35.916;2023-07-29T00:14:56;3.47;;;1.98;;
76939;SDS011;65885;55.848;35.916;2023-07-29T00:17:25;3.25;;;1.85;;
76939;SDS011;65885;55.848;35.916;2023-07-29T00:19:52;3.90;;;2.10;;
76939;SDS011;65885;55.848;35.916;2023-07-29T00:22:20;3.88;;;2.17;;
76939;SDS011;65885;55.848;35.916;2023-07-29T00:24:51;2.70;;;1.95;;
76939;SDS011;65885;55.848;35.916;2023-07-29T00:27:20;4.03;;;1.70;;
76939;SDS011;65885;55.848;35.916;2023-07-29T00:29:47;3.78;;;2.28;;
76939;SDS011;65885;55.848;35.916;2023-07-29T00:32:15;4.75;;;2.22;;
76939;SDS011;65885;55.848;35.916;2023-07-29T00:34:44;4.90;;;2.53;;
76939;SDS011;65885;55.848;35.916;2023-07-29T00:37:12;2.60;;;2.03;;
76939;SDS011;65885;55.848;35.916;2023-07-29T00:39:39;4.95;;;2.40;;
76939;SDS011;65885;55.848;35.916;2023-07-29T00:42:06;3.60;;;2.00;;
76939;SDS011;65885;55.848;35.916;2023-07-29T00:44:34;3.42;;;2.17;;
76939;SDS011;65885;55.848;35.916;2023-07-29T00:47:02;4.97;;;2.10;;
76939;SDS011;65885;55.848;35.916;2023-07-29T00:49:31;2.78;;;1.70;;
76939;SDS011;65885;55.848;35.916;2023-07-29T00:52:01;2.38;;;1.50;;
76939;SDS011;65885;55.848;35.916;2023-07-29T00:54:28;3.30;;;1.85;;
76939;SDS011;65885;55.848;35.916;2023-07-29T00:56:55;2.80;;;2.15;;
76939;SDS011;65885;55.848;35.916;2023-07-29T00:59:23;2.67;;;1.63;;
76939;SDS011;65885;55.848;35.916;2023-07-29T01:01:51;3.08;;;2.13;;
76939;SDS011;65885;55.848;35.916;2023-07-29T01:04:18;5.82;;;2.10;;
76939;SDS011;65885;55.848;35.916;2023-07-29T01:06:47;3.47;;;2.00;;
76939;SDS011;65885;55.848;35.916;2023-07-29T01:09:23;3.38;;;1.92;;
76939;SDS011;65885;55.848;35.916;2023-07-29T01:11:59;4.25;;;2.22;;
76939;SDS011;65885;55.848;35.916;2023-07-29T01:14:40;56.22;;;51.08;;
76939;SDS011;65885;55.848;35.916;2023-07-29T01:17:13;334.30;;;300.75;;
76939;SDS011;65885;55.848;35.916;2023-07-29T01:19:53;639.13;;;568.97;;
76939;SDS011;65885;55.848;35.916;2023-07-29T01:22:29;713.13;;;614.63;;
76939;SDS011;65885;55.848;35.916;2023-07-29T01:24:59;579.92;;;500.23;;
76939;SDS011;65885;55.848;35.916;2023-07-29T01:27:28;499.85;;;406.50;;
76939;SDS011;65885;55.848;35.916;2023-07-29T01:29:56;415.98;;;335.75;;
76939;SDS011;65885;55.848;35.916;2023-07-29T01:32:28;322.92;;;258.42;;
76939;SDS011;65885;55.848;35.916;2023-07-29T01:35:02;269.40;;;208.10;;
76939;SDS011;65885;55.848;35.916;2023-07-29T01:37:36;223.98;;;171.52;;
76939;SDS011;65885;55.848;35.916;2023-07-29T01:40:07;208.05;;;151.88;;
76939;SDS011;65885;55.848;35.916;2023-07-29T01:42:36;140.07;;;100.38;;
76939;SDS011;65885;55.848;35.916;2023-07-29T01:45:04;139.65;;;99.63;;
76939;SDS011;65885;55.848;35.916;2023-07-29T01:47:32;95.47;;;66.07;;
76939;SDS011;65885;55.848;35.916;2023-07-29T01:49:59;89.65;;;61.75;;
76939;SDS011;65885;55.848;35.916;2023-07-29T01:52:29;63.65;;;42.03;;
76939;SDS011;65885;55.848;35.916;2023-07-29T01:54:56;66.82;;;46.30;;
76939;SDS011;65885;55.848;35.916;2023-07-29T01:57:25;47.05;;;32.38;;
76939;SDS011;65885;55.848;35.916;2023-07-29T01:59:52;46.03;;;33.38;;
76939;SDS011;65885;55.848;35.916;2023-07-29T02:02:19;30.83;;;21.67;;
76939;SDS011;65885;55.848;35.916;2023-07-29T02:04:47;29.45;;;20.17;;
76939;SDS011;65885;55.848;35.916;2023-07-29T02:07:16;32.15;;;21.98;;
76939;SDS011;65885;55.848;35.916;2023-07-29T02:09:44;23.05;;;16.52;;
76939;SDS011;65885;55.848;35.916;2023-07-29T02:12:11;21.20;;;14.85;;
76939;SDS011;65885;55.848;35.916;2023-07-29T02:14:40;17.05;;;11.57;;
76939;SDS011;65885;55.848;35.916;2023-07-29T02:17:07;13.57;;;9.40;;
76939;SDS011;65885;55.848;35.916;2023-07-29T02:19:35;9.48;;;7.47;;
76939;SDS011;65885;55.848;35.916;2023-07-29T02:22:03;11.18;;;7.18;;
76939;SDS011;65885;55.848;35.916;2023-07-29T02:24:30;10.68;;;6.60;;
76939;SDS011;65885;55.848;35.916;2023-07-29T02:26:57;8.85;;;5.07;;
76939;SDS011;65885;55.848;35.916;2023-07-29T02:29:25;7.13;;;4.68;;
76939;SDS011;65885;55.848;35.916;2023-07-29T02:31:54;6.57;;;4.03;;
76939;SDS011;65885;55.848;35.916;2023-07-29T02:34:21;5.38;;;3.50;;
76939;SDS011;65885;55.848;35.916;2023-07-29T02:36:48;6.88;;;3.78;;
76939;SDS011;65885;55.848;35.916;2023-07-29T02:39:16;4.88;;;3.53;;
76939;SDS011;65885;55.848;35.916;2023-07-29T02:41:43;3.85;;;2.78;;
76939;SDS011;65885;55.848;35.916;2023-07-29T02:44:10;3.40;;;2.53;;
76939;SDS011;65885;55.848;35.916;2023-07-29T02:46:38;3.60;;;3.08;;
76939;SDS011;65885;55.848;35.916;2023-07-29T02:49:07;2.97;;;2.63;;
76939;SDS011;65885;55.848;35.916;2023-07-29T02:51:34;2.78;;;2.30;;
76939;SDS011;65885;55.848;35.916;2023-07-29T02:54:02;5.07;;;2.38;;
76939;SDS011;65885;55.848;35.916;2023-07-29T02:56:29;2.88;;;2.10;;
76939;SDS011;65885;55.848;35.916;2023-07-29T02:58:57;3.50;;;2.10;;
76939;SDS011;65885;55.848;35.916;2023-07-29T03:01:25;2.40;;;2.05;;
76939;SDS011;65885;55.848;35.916;2023-07-29T03:03:53;4.32;;;3.50;;
76939;SDS011;65885;55.848;35.916;2023-07-29T03:06:22;20.13;;;14.38;;
76939;SDS011;65885;55.848;35.916;2023-07-29T03:08:49;144.35;;;110.03;;
76939;SDS011;65885;55.848;35.916;2023-07-29T03:11:16;472.88;;;391.80;;
76939;SDS011;65885;55.848;35.916;2023-07-29T03:13:44;788.58;;;654.13;;
76939;SDS011;65885;55.848;35.916;2023-07-29T03:16:11;1105.53;;;804.08;;
76939;SDS011;65885;55.848;35.916;2023-07-29T03:18:40;1376.60;;;883.22;;
76939;SDS011;65885;55.848;35.916;2023-07-29T03:21:09;1343.00;;;880.13;;
76939;SDS011;65885;55.848;35.916;2023-07-29T03:23:38;1151.60;;;822.00;;
76939;SDS011;65885;55.848;35.916;2023-07-29T03:26:05;906.35;;;700.63;;
76939;SDS011;65885;55.848;35.916;2023-07-29T03:28:36;559.55;;;443.85;;
76939;SDS011;65885;55.848;35.916;2023-07-29T03:31:05;555.40;;;432.88;;
76939;SDS011;65885;55.848;35.916;2023-07-29T03:33:32;518.92;;;397.67;;
76939;SDS011;65885;55.848;35.916;2023-07-29T03:36:00;474.13;;;349.02;;
76939;SDS011;65885;55.848;35.916;2023-07-29T03:38:27;417.17;;;300.05;;
76939;SDS011;65885;55.848;35.916;2023-07-29T03:40:56;396.98;;;293.67;;
76939;SDS011;65885;55.848;35.916;2023-07-29T03:43:24;310.10;;;228.63;;
76939;SDS011;65885;55.848;35.916;2023-07-29T03:45:51;258.63;;;184.45;;
76939;SDS011;65885;55.848;35.916;2023-07-29T03:48:18;152.55;;;99.78;;
76939;SDS011;65885;55.848;35.916;2023-07-29T03:50:46;62.65;;;40.55;;
76939;SDS011;65885;55.848;35.916;2023-07-29T03:53:13;110.53;;;72.25;;
76939;SDS011;65885;55.848;35.916;2023-07-29T03:55:40;52.28;;;32.92;;
76939;SDS011;65885;55.848;35.916;2023-07-29T03:58:09;51.05;;;31.67;;
76939;SDS011;65885;55.848;35.916;2023-07-29T04:00:36;30.13;;;18.77;;
76939;SDS011;65885;55.848;35.916;2023-07-29T04:03:04;18.60;;;11.00;;
76939;SDS011;65885;55.848;35.916;2023-07-29T04:05:31;29.77;;;17.50;;
76939;SDS011;65885;55.848;35.916;2023-07-29T04:07:59;25.10;;;15.50;;
76939;SDS011;65885;55.848;35.916;2023-07-29T04:10:26;17.95;;;11.88;;
76939;SDS011;65885;55.848;35.916;2023-07-29T04:12:57;18.63;;;11.00;;
76939;SDS011;65885;55.848;35.916;2023-07-29T04:15:25;11.27;;;7.53;;
76939;SDS011;65885;55.848;35.916;2023-07-29T04:17:53;9.60;;;6.32;;
76939;SDS011;65885;55.848;35.916;2023-07-29T04:20:21;6.30;;;4.43;;
76939;SDS011;65885;55.848;35.916;2023-07-29T04:22:49;7.45;;;4.72;;
76939;SDS011;65885;55.848;35.916;2023-07-29T04:25:16;6.60;;;4.40;;
76939;SDS011;65885;55.848;35.916;2023-07-29T04:27:43;4.63;;;3.50;;
76939;SDS011;65885;55.848;35.916;2023-07-29T04:30:11;6.15;;;3.53;;
76939;SDS011;65885;55.848;35.916;2023-07-29T04:32:40;3.83;;;2.40;;
76939;SDS011;65885;55.848;35.916;2023-07-29T04:35:07;4.32;;;2.78;;
76939;SDS011;65885;55.848;35.916;2023-07-29T04:37:35;3.50;;;2.42;;
76939;SDS011;65885;55.848;35.916;2023-07-29T04:40:02;4.10;;;2.00;;
76939;SDS011;65885;55.848;35.916;2023-07-29T04:42:30;3.08;;;2.50;;
76939;SDS011;65885;55.848;35.916;2023-07-29T04:44:57;3.28;;;2.17;;
76939;SDS011;65885;55.848;35.916;2023-07-29T04:47:25;2.30;;;2.00;;
76939;SDS011;65885;55.848;35.916;2023-07-29T04:49:54;3.17;;;2.00;;
76939;SDS011;65885;55.848;35.916;2023-07-29T04:52:21;2.97;;;1.90;;
76939;SDS011;65885;55.848;35.916;2023-07-29T04:54:49;2.80;;;1.90;;
76939;SDS011;65885;55.848;35.916;2023-07-29T04:57:16;2.83;;;1.95;;
76939;SDS011;65885;55.848;35.916;2023-07-29T04:59:43;3.75;;;1.85;;
76939;SDS011;65885;55.848;35.916;2023-07-29T05:02:11;1.90;;;1.55;;
76939;SDS011;65885;55.848;35.916;2023-07-29T05:04:38;2.20;;;1.60;;
76939;SDS011;65885;55.848;35.916;2023-07-29T05:07:07;2.03;;;1.63;;
76939;SDS011;65885;55.848;35.916;2023-07-29T05:09:34;5.95;;;5.38;;
76939;SDS011;65885;55.848;35.916;2023-07-29T05:12:02;188.57;;;169.07;;
76939;SDS011;65885;55.848;35.916;2023-07-29T05:14:30;392.98;;;332.45;;
76939;SDS011;65885;55.848;35.916;2023-07-29T05:16:57;750.50;;;641.83;;
76939;SDS011;65885;55.848;35.916;2023-07-29T05:19:24;991.58;;;746.28;;
76939;SDS011;65885;55.848;35.916;2023-07-29T05:21:52;1244.50;;;834.35;;
76939;SDS011;65885;55.848;35.916;2023-07-29T05:24:21;1306.85;;;842.72;;
76939;SDS011;65885;55.848;35.916;2023-07-29T05:26:48;1523.30;;;907.05;;
76939;SDS011;65885;55.848;35.916;2023-07-29T05:29:16;1582.13;;;913.65;;
76939;SDS011;65885;55.848;35.916;2023-07-29T05:31:43;1626.45;;;922.53;;
76939;SDS011;65885;55.848;35.916;2023-07-29T05:34:10;1837.43;;;978.50;;
76939;SDS011;65885;55.848;35.916;2023-07-29T05:36:37;1667.85;;;926.75;;
76939;SDS011;65885;55.848;35.916;2023-07-29T05:39:05;1342.55;;;820.53;;
76939;SDS011;65885;55.848;35.916;2023-07-29T05:41:35;1126.82;;;768.22;;
76939;SDS011;65885;55.848;35.916;2023-07-29T05:44:02;889.20;;;616.70;;
76939;SDS011;65885;55.848;35.916;2023-07-29T05:46:30;628.03;;;408.15;;
76939;SDS011;65885;55.848;35.916;2023-07-29T05:48:57;428.88;;;255.80;;
76939;SDS011;65885;55.848;35.916;2023-07-29T05:51:24;287.45;;;154.73;;
76939;SDS011;65885;55.848;35.916;2023-07-29T05:53:51;255.50;;;139.18;;
76939;SDS011;65885;55.848;35.916;2023-07-29T05:56:19;262.85;;;141.25;;
76939;SDS011;65885;55.848;35.916;2023-07-29T05:58:49;238.52;;;128.00;;
76939;SDS011;65885;55.848;35.916;2023-07-29T06:01:16;290.55;;;170.52;;
76939;SDS011;65885;55.848;35.916;2023-07-29T06:03:46;528.55;;;392.00;;
76939;SDS011;65885;55.848;35.916;2023-07-29T06:06:14;704.10;;;551.83;;
76939;SDS011;65885;55.848;35.916;2023-07-29T06:08:42;1051.78;;;750.83;;
76939;SDS011;65885;55.848;35.916;2023-07-29T06:11:09;1275.85;;;827.88;;
76939;SDS011;65885;55.848;35.916;2023-07-29T06:13:37;1562.15;;;910.90;;
76939;SDS011;65885;55.848;35.916;2023-07-29T06:16:05;1865.03;;;976.17;;
76939;SDS011;65885;55.848;35.916;2023-07-29T06:18:33;1999.90;;;999.90;;
76939;SDS011;65885;55.848;35.916;2023-07-29T06:21:00;1999.90;;;999.90;;
76939;SDS011;65885;55.848;35.916;2023-07-29T06:23:27;1999.90;;;999.90;;
76939;SDS011;65885;55.848;35.916;2023-07-29T06:25:55;1999.90;;;999.90;;
76939;SDS011;65885;55.848;35.916;2023-07-29T06:28:22;1885.68;;;980.55;;
76939;SDS011;65885;55.848;35.916;2023-07-29T06:30:50;1489.88;;;891.05;;
76939;SDS011;65885;55.848;35.916;2023-07-29T06:33:19;820.38;;;607.75;;
76939;SDS011;65885;55.848;35.916;2023-07-29T06:35:46;952.13;;;698.50;;
76939;SDS011;65885;55.848;35.916;2023-07-29T06:38:13;1140.65;;;788.38;;
76939;SDS011;65885;55.848;35.916;2023-07-29T06:40:44;1333.55;;;845.60;;
76939;SDS011;65885;55.848;35.916;2023-07-29T06:43:12;1515.70;;;892.00;;
76939;SDS011;65885;55.848;35.916;2023-07-29T06:45:39;1907.07;;;983.70;;
76939;SDS011;65885;55.848;35.916;2023-07-29T06:48:07;1891.93;;;979.65;;
76939;SDS011;65885;55.848;35.916;2023-07-29T06:50:36;1530.80;;;906.88;;
76939;SDS011;65885;55.848;35.916;2023-07-29T06:53:03;1063.15;;;732.40;;
76939;SDS011;65885;55.848;35.916;2023-07-29T06:55:30;896.47;;;655.65;;
76939;SDS011;65885;55.848;35.916;2023-07-29T06:57:58;713.17;;;530.28;;
76939;SDS011;65885;55.848;35.916;2023-07-29T07:00:25;517.13;;;350.27;;
76939;SDS011;65885;55.848;35.916;2023-07-29T07:02:52;438.25;;;285.75;;
76939;SDS011;65885;55.848;35.916;2023-07-29T07:05:20;350.48;;;228.32;;
76939;SDS011;65885;55.848;35.916;2023-07-29T07:07:48;271.38;;;170.07;;
76939;SDS011;65885;55.848;35.916;2023-07-29T07:10:16;215.65;;;126.85;;
76939;SDS011;65885;55.848;35.916;2023-07-29T07:12:43;184.75;;;110.03;;
76939;SDS011;65885;55.848;35.916;2023-07-29T07:15:11;160.88;;;95.63;;
76939;SDS011;65885;55.848;35.916;2023-07-29T07:17:38;89.50;;;50.58;;
76939;SDS011;65885;55.848;35.916;2023-07-29T07:20:07;75.13;;;43.42;;
76939;SDS011;65885;55.848;35.916;2023-07-29T07:22:34;50.33;;;29.67;;
76939;SDS011;65885;55.848;35.916;2023-07-29T07:25:03;37.15;;;20.33;;
76939;SDS011;65885;55.848;35.916;2023-07-29T07:27:31;15.75;;;8.55;;
76939;SDS011;65885;55.848;35.916;2023-07-29T07:29:58;11.57;;;6.68;;
76939;SDS011;65885;55.848;35.916;2023-07-29T07:32:26;10.55;;;5.47;;
76939;SDS011;65885;55.848;35.916;2023-07-29T07:34:53;6.95;;;4.22;;
76939;SDS011;65885;55.848;35.916;2023-07-29T07:37:21;8.23;;;4.90;;
76939;SDS011;65885;55.848;35.916;2023-07-29T07:39:48;6.28;;;4.10;;
76939;SDS011;65885;55.848;35.916;2023-07-29T07:42:17;6.38;;;4.57;;
76939;SDS011;65885;55.848;35.916;2023-07-29T07:44:44;3.90;;;3.40;;
76939;SDS011;65885;55.848;35.916;2023-07-29T07:47:12;4.85;;;3.58;;
76939;SDS011;65885;55.848;35.916;2023-07-29T07:49:39;3.33;;;2.90;;
76939;SDS011;65885;55.848;35.916;2023-07-29T07:52:07;3.03;;;1.83;;
76939;SDS011;65885;55.848;35.916;2023-07-29T07:54:34;1.58;;;1.38;;
76939;SDS011;65885;55.848;35.916;2023-07-29T07:57:01;2.22;;;1.02;;
76939;SDS011;65885;55.848;35.916;2023-07-29T07:59:30;2.15;;;1.00;;
76939;SDS011;65885;55.848;35.916;2023-07-29T08:01:58;1.25;;;0.90;;
76939;SDS011;65885;55.848;35.916;2023-07-29T08:04:25;1.42;;;1.00;;
76939;SDS011;65885;55.848;35.916;2023-07-29T08:06:52;1.60;;;1.10;;
76939;SDS011;65885;55.848;35.916;2023-07-29T08:09:20;1.60;;;1.00;;
76939;SDS011;65885;55.848;35.916;2023-07-29T08:11:47;1.20;;;1.00;;
76939;SDS011;65885;55.848;35.916;2023-07-29T08:14:14;1.30;;;0.95;;
76939;SDS011;65885;55.848;35.916;2023-07-29T08:16:43;1.58;;;1.10;;
76939;SDS011;65885;55.848;35.916;2023-07-29T08:19:10;1.25;;;0.90;;
76939;SDS011;65885;55.848;35.916;2023-07-29T08:21:38;1.98;;;0.93;;
76939;SDS011;65885;55.848;35.916;2023-07-29T08:24:05;1.17;;;0.90;;
76939;SDS011;65885;55.848;35.916;2023-07-29T08:26:33;1.08;;;0.80;;
76939;SDS011;65885;55.848;35.916;2023-07-29T08:29:00;1.60;;;0.90;;
76939;SDS011;65885;55.848;35.916;2023-07-29T08:31:27;3.05;;;0.90;;
76939;SDS011;65885;55.848;35.916;2023-07-29T08:34:00;1.38;;;1.00;;
76939;SDS011;65885;55.848;35.916;2023-07-29T08:36:27;1.40;;;1.00;;
76939;SDS011;65885;55.848;35.916;2023-07-29T08:38:54;1.73;;;0.82;;
76939;SDS011;65885;55.848;35.916;2023-07-29T08:41:24;1.25;;;0.80;;
76939;SDS011;65885;55.848;35.916;2023-07-29T08:43:57;0.98;;;0.80;;
76939;SDS011;65885;55.848;35.916;2023-07-29T08:46:33;2.17;;;1.08;;
76939;SDS011;65885;55.848;35.916;2023-07-29T08:49:02;2.47;;;1.25;;
76939;SDS011;65885;55.848;35.916;2023-07-29T08:51:30;1.40;;;0.90;;
76939;SDS011;65885;55.848;35.916;2023-07-29T08:53:59;2.63;;;2.42;;
76939;SDS011;65885;55.848;35.916;2023-07-29T08:56:28;4.60;;;4.20;;
76939;SDS011;65885;55.848;35.916;2023-07-29T08:58:55;5.70;;;4.18;;
76939;SDS011;65885;55.848;35.916;2023-07-29T09:01:25;3.65;;;3.35;;
76939;SDS011;65885;55.848;35.916;2023-07-29T09:03:53;3.33;;;2.90;;
76939;SDS011;65885;55.848;35.916;2023-07-29T09:06:22;2.92;;;2.30;;
76939;SDS011;65885;55.848;35.916;2023-07-29T09:08:52;2.03;;;1.40;;
76939;SDS011;65885;55.848;35.916;2023-07-29T09:11:21;1.67;;;1.20;;
76939;SDS011;65885;55.848;35.916;2023-07-29T09:13:49;1.88;;;1.25;;
76939;SDS011;65885;55.848;35.916;2023-07-29T09:16:18;1.42;;;1.33;;
76939;SDS011;65885;55.848;35.916;2023-07-29T09:18:47;1.77;;;1.40;;
76939;SDS011;65885;55.848;35.916;2023-07-29T09:21:16;1.33;;;1.23;;
76939;SDS011;65885;55.848;35.916;2023-07-29T09:23:46;2.53;;;1.30;;
76939;SDS011;65885;55.848;35.916;2023-07-29T09:26:13;1.50;;;0.82;;
76939;SDS011;65885;55.848;35.916;2023-07-29T09:28:51;1.15;;;0.70;;
76939;SDS011;65885;55.848;35.916;2023-07-29T09:31:19;1.15;;;0.80;;
76939;SDS011;65885;55.848;35.916;2023-07-29T09:33:47;1.73;;;0.90;;
76939;SDS011;65885;55.848;35.916;2023-07-29T09:36:15;2.22;;;0.80;;
76939;SDS011;65885;55.848;35.916;2023-07-29T09:38:42;1.08;;;0.90;;
76939;SDS011;65885;55.848;35.916;2023-07-29T09:41:12;1.48;;;0.80;;
76939;SDS011;65885;55.848;35.916;2023-07-29T09:43:42;1.40;;;0.85;;
76939;SDS011;65885;55.848;35.916;2023-07-29T09:46:09;1.38;;;1.00;;
76939;SDS011;65885;55.848;35.916;2023-07-29T09:48:37;1.00;;;0.90;;
76939;SDS011;65885;55.848;35.916;2023-07-29T09:51:10;0.80;;;0.80;;
76939;SDS011;65885;55.848;35.916;2023-07-29T09:53:42;0.90;;;0.75;;
76939;SDS011;65885;55.848;35.916;2023-07-29T09:56:10;0.88;;;0.85;;
76939;SDS011;65885;55.848;35.916;2023-07-29T09:58:40;1.83;;;0.73;;
76939;SDS011;65885;55.848;35.916;2023-07-29T10:01:11;1.02;;;0.80;;
76939;SDS011;65885;55.848;35.916;2023-07-29T10:03:39;2.30;;;1.50;;
76939;SDS011;65885;55.848;35.916;2023-07-29T10:06:07;58.67;;;47.75;;
76939;SDS011;65885;55.848;35.916;2023-07-29T10:08:35;262.17;;;179.18;;
76939;SDS011;65885;55.848;35.916;2023-07-29T10:11:05;170.13;;;102.05;;
76939;SDS011;65885;55.848;35.916;2023-07-29T10:13:35;168.95;;;104.82;;
76939;SDS011;65885;55.848;35.916;2023-07-29T10:16:03;66.00;;;38.13;;
76939;SDS011;65885;55.848;35.916;2023-07-29T10:18:31;65.32;;;39.00;;
76939;SDS011;65885;55.848;35.916;2023-07-29T10:21:00;35.85;;;21.23;;
76939;SDS011;65885;55.848;35.916;2023-07-29T10:23:31;16.95;;;9.98;;
76939;SDS011;65885;55.848;35.916;2023-07-29T10:26:02;6.85;;;4.50;;
76939;SDS011;65885;55.848;35.916;2023-07-29T10:28:30;5.05;;;2.85;;
76939;SDS011;65885;55.848;35.916;2023-07-29T10:31:01;2.70;;;1.88;;
76939;SDS011;65885;55.848;35.916;2023-07-29T10:35:57;4.40;;;2.35;;
76939;SDS011;65885;55.848;35.916;2023-07-29T10:38:25;2.22;;;1.40;;
76939;SDS011;65885;55.848;35.916;2023-07-29T10:40:53;1.88;;;1.10;;
76939;SDS011;65885;55.848;35.916;2023-07-29T10:43:25;1.05;;;0.90;;
76939;SDS011;65885;55.848;35.916;2023-07-29T10:45:53;2.83;;;0.98;;
76939;SDS011;65885;55.848;35.916;2023-07-29T10:48:42;1.65;;;1.20;;
76939;SDS011;65885;55.848;35.916;2023-07-29T10:51:25;2.00;;;1.00;;
76939;SDS011;65885;55.848;35.916;2023-07-29T10:56:34;1.17;;;1.00;;
76939;SDS011;65885;55.848;35.916;2023-07-29T11:02:00;0.93;;;0.80;;
76939;SDS011;65885;55.848;35.916;2023-07-29T11:04:29;0.88;;;0.70;;
76939;SDS011;65885;55.848;35.916;2023-07-29T11:09:54;1.52;;;0.70;;
76939;SDS011;65885;55.848;35.916;2023-07-29T11:17:51;1.20;;;0.80;;
76939;SDS011;65885;55.848;35.916;2023-07-29T11:20:21;2.00;;;1.27;;
76939;SDS011;65885;55.848;35.916;2023-07-29T11:22:50;1.50;;;0.90;;
76939;SDS011;65885;55.848;35.916;2023-07-29T11:25:20;1.48;;;0.95;;
76939;SDS011;65885;55.848;35.916;2023-07-29T11:27:51;2.15;;;0.90;;
76939;SDS011;65885;55.848;35.916;2023-07-29T11:30:20;1.30;;;0.90;;
76939;SDS011;65885;55.848;35.916;2023-07-29T11:32:47;1.85;;;0.90;;
76939;SDS011;65885;55.848;35.916;2023-07-29T11:35:16;1.30;;;0.75;;
76939;SDS011;65885;55.848;35.916;2023-07-29T11:37:47;1.48;;;0.70;;
76939;SDS011;65885;55.848;35.916;2023-07-29T11:40:15;2.28;;;0.90;;
76939;SDS011;65885;55.848;35.916;2023-07-29T11:42:46;1.08;;;0.70;;
76939;SDS011;65885;55.848;35.916;2023-07-29T11:45:15;0.93;;;0.60;;
76939;SDS011;65885;55.848;35.916;2023-07-29T11:47:43;0.82;;;0.70;;
76939;SDS011;65885;55.848;35.916;2023-07-29T11:50:10;1.00;;;0.65;;
76939;SDS011;65885;55.848;35.916;2023-07-29T11:52:40;0.98;;;0.80;;
76939;SDS011;65885;55.848;35.916;2023-07-29T11:55:11;1.88;;;0.60;;
76939;SDS011;65885;55.848;35.916;2023-07-29T11:57:40;1.73;;;0.90;;
76939;SDS011;65885;55.848;35.916;2023-07-29T12:00:09;1.02;;;0.70;;
76939;SDS011;65885;55.848;35.916;2023-07-29T12:02:38;0.95;;;0.80;;
76939;SDS011;65885;55.848;35.916;2023-07-29T12:05:07;0.60;;;0.60;;
76939;SDS011;65885;55.848;35.916;2023-07-29T12:07:36;0.75;;;0.68;;
76939;SDS011;65885;55.848;35.916;2023-07-29T12:10:05;1.80;;;0.75;;
76939;SDS011;65885;55.848;35.916;2023-07-29T12:12:35;1.10;;;0.65;;
76939;SDS011;65885;55.848;35.916;2023-07-29T12:15:07;2.28;;;0.75;;
76939;SDS011;65885;55.848;35.916;2023-07-29T12:17:37;1.35;;;0.80;;
76939;SDS011;65885;55.848;35.916;2023-07-29T12:20:08;1.80;;;0.70;;
76939;SDS011;65885;55.848;35.916;2023-07-29T12:22:36;0.88;;;0.73;;
76939;SDS011;65885;55.848;35.916;2023-07-29T12:25:04;1.63;;;0.80;;
76939;SDS011;65885;55.848;35.916;2023-07-29T12:27:32;0.77;;;0.70;;
76939;SDS011;65885;55.848;35.916;2023-07-29T12:30:01;1.42;;;0.75;;
76939;SDS011;65885;55.848;35.916;2023-07-29T12:32:31;1.95;;;0.70;;
76939;SDS011;65885;55.848;35.916;2023-07-29T12:34:59;1.58;;;0.57;;
76939;SDS011;65885;55.848;35.916;2023-07-29T12:37:30;0.88;;;0.57;;
76939;SDS011;65885;55.848;35.916;2023-07-29T12:39:58;2.78;;;0.70;;
76939;SDS011;65885;55.848;35.916;2023-07-29T12:42:26;0.80;;;0.60;;
76939;SDS011;65885;55.848;35.916;2023-07-29T12:44:54;0.82;;;0.73;;
76939;SDS011;65885;55.848;35.916;2023-07-29T12:47:23;2.35;;;0.70;;
76939;SDS011;65885;55.848;35.916;2023-07-29T12:49:50;0.85;;;0.60;;
76939;SDS011;65885;55.848;35.916;2023-07-29T12:52:17;0.77;;;0.60;;
76939;SDS011;65885;55.848;35.916;2023-07-29T12:54:44;1.55;;;0.70;;
76939;SDS011;65885;55.848;35.916;2023-07-29T12:57:12;1.10;;;0.85;;
76939;SDS011;65885;55.848;35.916;2023-07-29T12:59:39;1.05;;;0.70;;
76939;SDS011;65885;55.848;35.916;2023-07-29T13:02:07;1.55;;;0.70;;
76939;SDS011;65885;55.848;35.916;2023-07-29T13:04:35;1.35;;;0.68;;
76939;SDS011;65885;55.848;35.916;2023-07-29T13:07:03;0.60;;;0.60;;
76939;SDS011;65885;55.848;35.916;2023-07-29T13:09:30;2.45;;;1.00;;
76939;SDS011;65885;55.848;35.916;2023-07-29T13:11:58;1.67;;;1.33;;
76939;SDS011;65885;55.848;35.916;2023-07-29T13:14:25;1.45;;;0.60;;
76939;SDS011;65885;55.848;35.916;2023-07-29T13:16:53;1.08;;;0.60;;
76939;SDS011;65885;55.848;35.916;2023-07-29T13:19:21;1.27;;;0.70;;
76939;SDS011;65885;55.848;35.916;2023-07-29T13:21:49;0.90;;;0.63;;
76939;SDS011;65885;55.848;35.916;2023-07-29T13:24:17;1.67;;;0.60;;
76939;SDS011;65885;55.848;35.916;2023-07-29T13:26:44;0.90;;;0.70;;
76939;SDS011;65885;55.848;35.916;2023-07-29T13:29:12;2.97;;;0.90;;
76939;SDS011;65885;55.848;35.916;2023-07-29T13:31:39;1.73;;;0.60;;
76939;SDS011;65885;55.848;35.916;2023-07-29T13:34:06;2.08;;;0.90;;
76939;SDS011;65885;55.848;35.916;2023-07-29T13:36:34;8.45;;;5.90;;
76939;SDS011;65885;55.848;35.916;2023-07-29T13:39:02;13.13;;;7.68;;
76939;SDS011;65885;55.848;35.916;2023-07-29T13:41:30;8.52;;;6.32;;
76939;SDS011;65885;55.848;35.916;2023-07-29T13:43:58;5.18;;;3.50;;
76939;SDS011;65885;55.848;35.916;2023-07-29T13:46:25;4.30;;;3.20;;
76939;SDS011;65885;55.848;35.916;2023-07-29T13:48:52;3.63;;;2.20;;
76939;SDS011;65885;55.848;35.916;2023-07-29T13:51:20;3.97;;;1.70;;
76939;SDS011;65885;55.848;35.916;2023-07-29T13:53:47;1.92;;;1.25;;
76939;SDS011;65885;55.848;35.916;2023-07-29T13:56:16;2.58;;;1.45;;
76939;SDS011;65885;55.848;35.916;2023-07-29T13:58:44;2.47;;;0.90;;
76939;SDS011;65885;55.848;35.916;2023-07-29T14:01:11;1.25;;;0.82;;
76939;SDS011;65885;55.848;35.916;2023-07-29T14:03:38;1.88;;;0.85;;
76939;SDS011;65885;55.848;35.916;2023-07-29T14:06:05;1.08;;;0.88;;
76939;SDS011;65885;55.848;35.916;2023-07-29T14:08:33;2.25;;;0.70;;
76939;SDS011;65885;55.848;35.916;2023-07-29T14:11:00;1.55;;;0.65;;
76939;SDS011;65885;55.848;35.916;2023-07-29T14:13:29;0.90;;;0.60;;
76939;SDS011;65885;55.848;35.916;2023-07-29T14:15:56;0.70;;;0.60;;
76939;SDS011;65885;55.848;35.916;2023-07-29T14:18:24;1.00;;;0.80;;
76939;SDS011;65885;55.848;35.916;2023-07-29T14:20:51;2.25;;;0.82;;
76939;SDS011;65885;55.848;35.916;2023-07-29T14:23:19;1.35;;;0.70;;
76939;SDS011;65885;55.848;35.916;2023-07-29T14:25:46;1.40;;;0.80;;
76939;SDS011;65885;55.848;35.916;2023-07-29T14:28:13;1.73;;;0.70;;
76939;SDS011;65885;55.848;35.916;2023-07-29T14:30:42;1.10;;;0.80;;
76939;SDS011;65885;55.848;35.916;2023-07-29T14:33:10;2.28;;;0.75;;
76939;SDS011;65885;55.848;35.916;2023-07-29T14:35:38;2.65;;;0.90;;
76939;SDS011;65885;55.848;35.916;2023-07-29T14:38:06;1.75;;;0.70;;
76939;SDS011;65885;55.848;35.916;2023-07-29T14:40:33;1.67;;;0.80;;